createdAt,value
2023-04-15T00:01:49.780Z,3.85
2023-04-15T00:04:16.416Z,4.03
2023-04-15T00:06:42.973Z,4.18
2023-04-15T00:09:09.351Z,4.27
2023-04-15T00:11:35.723Z,4.22
2023-04-15T00:14:02.140Z,3.85
2023-04-15T00:16:28.543Z,4.35
2023-04-15T00:18:54.951Z,4.57
2023-04-15T00:21:21.448Z,4.33
2023-04-15T00:23:52.485Z,4.35
2023-04-15T00:26:19.644Z,4.25
2023-04-15T00:28:46.809Z,4.60
2023-04-15T00:31:13.407Z,5.00
2023-04-15T00:33:40.106Z,4.63
2023-04-15T00:36:07.238Z,4.90
2023-04-15T00:38:33.624Z,4.55
2023-04-15T00:41:00.156Z,4.90
2023-04-15T00:43:26.650Z,4.85
2023-04-15T00:45:54.460Z,4.73
2023-04-15T00:48:21.230Z,4.97
2023-04-15T00:50:47.642Z,5.00
2023-04-15T00:53:13.985Z,5.10
2023-04-15T00:55:40.427Z,5.03
2023-04-15T00:58:07.126Z,5.20
2023-04-15T01:00:34.524Z,5.60
2023-04-15T01:03:01.583Z,4.82
2023-04-15T01:05:28.574Z,5.38
2023-04-15T01:07:55.440Z,5.47
2023-04-15T01:10:22.098Z,5.37
2023-04-15T01:12:48.596Z,5.28
2023-04-15T01:15:15.987Z,5.60
2023-04-15T01:17:42.712Z,5.55
2023-04-15T01:20:12.550Z,5.93
2023-04-15T01:22:39.382Z,5.27
2023-04-15T01:25:09.716Z,5.88
2023-04-15T01:27:38.901Z,6.00
2023-04-15T01:30:07.899Z,5.28
2023-04-15T01:32:34.360Z,5.50
2023-04-15T01:35:00.768Z,5.70
2023-04-15T01:37:27.509Z,5.68
2023-04-15T01:39:53.876Z,5.90
2023-04-15T01:42:21.852Z,5.53
2023-04-15T01:44:48.208Z,5.95
2023-04-15T01:47:14.779Z,5.77
2023-04-15T01:49:41.485Z,5.68
2023-04-15T01:52:08.043Z,5.88
2023-04-15T01:54:34.494Z,5.78
2023-04-15T01:57:00.869Z,5.88
2023-04-15T01:59:27.346Z,5.90
2023-04-15T02:01:53.745Z,6.20
2023-04-15T02:04:20.121Z,5.82
2023-04-15T02:06:46.463Z,5.95
2023-04-15T02:09:13.351Z,6.55
2023-04-15T02:11:39.864Z,6.23
2023-04-15T02:14:06.373Z,6.10
2023-04-15T02:16:33.969Z,6.40
2023-04-15T02:19:01.373Z,6.30
2023-04-15T02:21:27.989Z,6.03
2023-04-15T02:23:54.402Z,6.67
2023-04-15T02:26:20.829Z,6.05
2023-04-15T02:28:47.313Z,6.28
2023-04-15T02:31:13.676Z,6.18
2023-04-15T02:33:40.644Z,6.35
2023-04-15T02:36:08.284Z,6.93
2023-04-15T02:38:34.767Z,6.43
2023-04-15T02:41:01.589Z,6.10
2023-04-15T02:43:27.937Z,6.80
2023-04-15T02:45:54.326Z,7.15
2023-04-15T02:48:20.827Z,6.20
2023-04-15T02:50:48.042Z,7.18
2023-04-15T02:53:14.767Z,6.93
2023-04-15T02:55:41.338Z,6.40
2023-04-15T02:58:07.713Z,6.40
2023-04-15T03:00:34.250Z,6.63
2023-04-15T03:03:05.400Z,7.13
2023-04-15T03:05:32.086Z,7.28
2023-04-15T03:07:58.468Z,7.78
2023-04-15T03:10:24.930Z,6.75
2023-04-15T03:12:51.601Z,6.93
2023-04-15T03:15:18.016Z,7.20
2023-04-15T03:17:44.470Z,7.75
2023-04-15T03:20:11.192Z,7.78
2023-04-15T03:22:37.669Z,8.20
2023-04-15T03:25:04.335Z,8.67
2023-04-15T03:27:30.944Z,8.23
2023-04-15T03:29:57.371Z,9.13
2023-04-15T03:32:24.285Z,9.07
2023-04-15T03:34:50.690Z,10.20
2023-04-15T03:37:17.135Z,9.57
2023-04-15T03:39:43.536Z,9.68
2023-04-15T03:42:09.939Z,10.10
2023-04-15T03:44:36.296Z,9.80
2023-04-15T03:47:02.695Z,8.90
2023-04-15T03:49:29.075Z,9.53
2023-04-15T03:51:55.753Z,9.50
2023-04-15T03:54:22.135Z,9.50
2023-04-15T03:56:48.485Z,9.82
2023-04-15T03:59:14.846Z,9.23
2023-04-15T04:01:41.304Z,10.30
2023-04-15T04:04:07.893Z,9.93
2023-04-15T04:06:34.446Z,9.48
2023-04-15T04:09:01.754Z,10.07
2023-04-15T04:11:28.321Z,9.75
2023-04-15T04:13:54.664Z,11.20
2023-04-15T04:16:21.206Z,11.80
2023-04-15T04:18:47.658Z,11.40
2023-04-15T04:21:14.153Z,11.10
2023-04-15T04:23:40.621Z,11.43
2023-04-15T04:26:07.134Z,10.73
2023-04-15T04:28:33.825Z,11.38
2023-04-15T04:31:00.396Z,11.23
2023-04-15T04:33:26.745Z,12.27
2023-04-15T04:35:53.087Z,10.77
2023-04-15T04:38:19.452Z,11.80
2023-04-15T04:40:45.883Z,11.73
2023-04-15T04:43:13.158Z,11.20
2023-04-15T04:45:39.591Z,10.95
2023-04-15T04:48:07.206Z,11.82
2023-04-15T04:50:33.872Z,11.53
2023-04-15T04:53:00.882Z,11.43
2023-04-15T04:55:27.827Z,12.07
2023-04-15T04:57:54.220Z,11.82
2023-04-15T05:00:20.694Z,12.00
2023-04-15T05:02:47.288Z,11.53
2023-04-15T05:05:13.740Z,11.45
2023-04-15T05:07:40.574Z,11.07
2023-04-15T05:10:07.634Z,12.20
2023-04-15T05:12:34.072Z,12.05
2023-04-15T05:15:00.523Z,12.67
2023-04-15T05:17:27.300Z,13.05
2023-04-15T05:19:53.816Z,13.25
2023-04-15T05:22:20.262Z,12.80
2023-04-15T05:24:46.676Z,12.27
2023-04-15T05:27:13.109Z,12.00
2023-04-15T05:29:39.484Z,12.00
2023-04-15T05:32:06.567Z,11.73
2023-04-15T05:34:32.913Z,11.90
2023-04-15T05:36:59.262Z,11.70
2023-04-15T05:39:25.598Z,12.20
2023-04-15T05:41:52.080Z,11.27
2023-04-15T05:44:18.505Z,9.90
2023-04-15T05:46:44.892Z,11.10
2023-04-15T05:49:11.233Z,10.68
2023-04-15T05:51:37.664Z,11.57
2023-04-15T05:54:04.009Z,23.67
2023-04-15T05:56:30.550Z,19.33
2023-04-15T05:58:56.978Z,19.70
2023-04-15T06:01:23.456Z,60.45
2023-04-15T06:03:50.181Z,21.93
2023-04-15T06:06:16.612Z,17.95
2023-04-15T06:08:42.980Z,20.70
2023-04-15T06:11:09.343Z,14.40
2023-04-15T06:13:35.755Z,14.48
2023-04-15T06:16:02.156Z,18.73
2023-04-15T06:18:28.560Z,16.63
2023-04-15T06:20:54.985Z,14.63
2023-04-15T06:23:21.412Z,27.05
2023-04-15T06:25:48.162Z,22.17
2023-04-15T06:28:14.525Z,11.47
2023-04-15T06:30:41.089Z,13.43
2023-04-15T06:33:07.478Z,9.70
2023-04-15T06:35:34.048Z,8.95
2023-04-15T06:38:00.394Z,9.30
2023-04-15T06:40:26.889Z,8.30
2023-04-15T06:42:53.268Z,7.32
2023-04-15T06:45:19.620Z,8.98
2023-04-15T06:47:45.995Z,7.15
2023-04-15T06:50:12.441Z,6.85
2023-04-15T06:52:38.860Z,7.83
2023-04-15T06:55:06.729Z,7.32
2023-04-15T06:57:34.908Z,7.43
2023-04-15T07:00:01.858Z,5.82
2023-04-15T07:02:28.416Z,6.68
2023-04-15T07:04:55.547Z,6.93
2023-04-15T07:07:21.957Z,6.40
2023-04-15T07:09:48.423Z,6.15
2023-04-15T07:12:15.248Z,6.22
2023-04-15T07:14:41.642Z,7.20
2023-04-15T07:17:09.284Z,7.13
2023-04-15T07:19:35.904Z,6.35
2023-04-15T07:22:02.301Z,6.45
2023-04-15T07:24:28.935Z,8.70
2023-04-15T07:27:00.832Z,6.25
2023-04-15T07:29:27.793Z,6.00
2023-04-15T07:31:54.271Z,6.60
2023-04-15T07:34:20.964Z,6.55
2023-04-15T07:36:50.537Z,7.07
2023-04-15T07:39:17.004Z,7.53
2023-04-15T07:41:43.553Z,6.27
2023-04-15T07:44:10.064Z,6.45
2023-04-15T07:46:37.268Z,4.93
2023-04-15T07:49:04.274Z,5.05
2023-04-15T07:51:30.854Z,4.90
2023-04-15T07:53:57.201Z,4.90
2023-04-15T07:56:23.625Z,4.28
2023-04-15T07:58:49.978Z,3.85
2023-04-15T08:01:16.506Z,3.80
2023-04-15T08:03:43.183Z,4.63
2023-04-15T08:06:09.696Z,4.80
2023-04-15T08:08:36.082Z,4.85
2023-04-15T08:11:02.462Z,4.72
2023-04-15T08:13:28.899Z,4.20
2023-04-15T08:16:14.431Z,4.15
2023-04-15T08:18:40.865Z,4.10
2023-04-15T08:21:07.245Z,4.00
2023-04-15T08:23:33.696Z,3.92
2023-04-15T08:26:00.202Z,4.07
2023-04-15T08:28:27.006Z,3.38
2023-04-15T08:30:53.484Z,3.40
2023-04-15T08:33:19.882Z,3.17
2023-04-15T08:35:46.539Z,3.10
2023-04-15T08:38:12.991Z,3.13
2023-04-15T08:40:42.620Z,3.13
2023-04-15T08:43:43.885Z,2.97
2023-04-15T08:46:11.706Z,2.85
2023-04-15T08:48:40.352Z,3.03
2023-04-15T08:51:07.482Z,3.25
2023-04-15T08:53:34.255Z,3.42
2023-04-15T08:56:07.419Z,3.17
2023-04-15T08:58:34.348Z,2.90
2023-04-15T09:01:01.515Z,3.20
2023-04-15T09:03:28.901Z,2.80
2023-04-15T09:05:57.273Z,3.08
2023-04-15T09:08:23.762Z,2.80
2023-04-15T09:10:50.341Z,3.10
2023-04-15T09:13:16.847Z,2.85
2023-04-15T09:15:43.981Z,3.30
2023-04-15T09:18:13.539Z,3.38
2023-04-15T09:20:44.258Z,2.63
2023-04-15T09:23:14.940Z,2.50
2023-04-15T09:25:44.423Z,2.33
2023-04-15T09:28:11.463Z,2.42
2023-04-15T09:30:38.029Z,2.72
2023-04-15T09:33:08.366Z,2.33
2023-04-15T09:35:37.736Z,2.10
2023-04-15T09:38:09.723Z,2.50
2023-04-15T09:40:41.817Z,2.42
2023-04-15T09:43:09.823Z,2.63
2023-04-15T09:45:36.499Z,2.30
2023-04-15T09:48:23.268Z,2.30
2023-04-15T09:50:50.398Z,2.38
2023-04-15T09:53:21.379Z,2.20
2023-04-15T09:55:52.835Z,2.28
2023-04-15T09:58:30.261Z,2.03
2023-04-15T10:00:58.323Z,2.35
2023-04-15T10:03:27.737Z,2.22
2023-04-15T10:05:57.138Z,2.22
2023-04-15T10:08:26.113Z,2.33
2023-04-15T10:10:53.720Z,3.03
2023-04-15T10:13:24.760Z,2.38
2023-04-15T10:16:00.805Z,3.05
2023-04-15T10:18:28.576Z,9.32
2023-04-15T10:20:55.488Z,7.75
2023-04-15T10:23:24.426Z,3.80
2023-04-15T10:25:53.988Z,3.85
2023-04-15T10:28:22.845Z,4.13
2023-04-15T10:30:50.015Z,3.55
2023-04-15T10:33:26.551Z,2.97
2023-04-15T10:35:55.547Z,2.57
2023-04-15T10:38:43.466Z,2.33
2023-04-15T10:41:24.612Z,2.58
2023-04-15T10:43:55.887Z,2.55
2023-04-15T10:46:40.000Z,2.20
2023-04-15T10:49:12.037Z,2.23
2023-04-15T10:51:47.579Z,2.00
2023-04-15T10:54:31.761Z,2.13
2023-04-15T10:57:03.898Z,2.30
2023-04-15T10:59:36.057Z,2.42
2023-04-15T11:02:05.255Z,2.53
2023-04-15T11:04:57.600Z,2.70
2023-04-15T11:08:03.339Z,2.70
2023-04-15T11:10:29.815Z,2.90
2023-04-15T11:13:16.592Z,2.67
2023-04-15T11:15:47.763Z,2.67
2023-04-15T11:18:22.311Z,2.72
2023-04-15T11:20:54.915Z,2.58
2023-04-15T11:23:28.727Z,2.50
2023-04-15T11:25:57.844Z,2.58
2023-04-15T11:28:28.886Z,2.40
2023-04-15T11:30:55.999Z,2.22
2023-04-15T11:33:23.807Z,2.55
2023-04-15T11:35:51.182Z,2.33
2023-04-15T11:38:17.623Z,2.60
2023-04-15T11:40:46.752Z,2.73
2023-04-15T11:43:16.648Z,2.40
2023-04-15T11:45:53.098Z,2.50
2023-04-15T11:48:21.824Z,2.40
2023-04-15T11:50:56.856Z,2.67
2023-04-15T11:53:24.148Z,2.90
2023-04-15T11:55:52.678Z,2.65
2023-04-15T11:58:21.955Z,2.40
2023-04-15T12:00:49.737Z,2.90
2023-04-15T12:03:22.475Z,3.00
2023-04-15T12:06:13.402Z,2.10
2023-04-15T12:08:55.412Z,2.80
2023-04-15T12:11:27.603Z,3.50
2023-04-15T12:13:56.669Z,2.70
2023-04-15T12:16:24.743Z,3.20
2023-04-15T12:18:58.924Z,2.33
2023-04-15T12:21:27.576Z,2.80
2023-04-15T12:23:56.491Z,2.60
2023-04-15T12:26:28.879Z,2.67
2023-04-15T12:29:07.014Z,2.00
2023-04-15T12:31:37.317Z,2.50
2023-04-15T12:34:08.505Z,2.38
2023-04-15T12:36:37.901Z,2.70
2023-04-15T12:39:05.240Z,2.38
2023-04-15T12:41:32.793Z,2.63
2023-04-15T12:43:59.553Z,2.10
2023-04-15T12:46:27.065Z,2.45
2023-04-15T12:48:53.998Z,2.78
2023-04-15T12:51:23.393Z,2.38
2023-04-15T12:53:49.850Z,2.20
2023-04-15T12:56:17.353Z,2.13
2023-04-15T12:58:43.832Z,1.90
2023-04-15T13:01:11.171Z,2.03
2023-04-15T13:03:37.844Z,2.25
2023-04-15T13:06:05.113Z,2.30
2023-04-15T13:08:32.294Z,2.33
2023-04-15T13:10:58.830Z,2.38
2023-04-15T13:13:25.640Z,2.33
2023-04-15T13:15:52.035Z,2.30
2023-04-15T13:18:18.497Z,2.53
2023-04-15T13:20:44.897Z,2.30
2023-04-15T13:23:11.495Z,2.10
2023-04-15T13:25:38.016Z,2.10
2023-04-15T13:28:04.399Z,2.53
2023-04-15T13:30:31.242Z,2.60
2023-04-15T13:32:57.864Z,2.37
2023-04-15T13:35:24.247Z,2.30
2023-04-15T13:37:50.618Z,2.38
2023-04-15T13:40:16.972Z,2.42
2023-04-15T13:42:43.431Z,2.10
2023-04-15T13:45:10.197Z,2.03
2023-04-15T13:47:36.638Z,2.40
2023-04-15T13:50:03.183Z,2.20
2023-04-15T13:52:29.608Z,3.00
2023-04-15T13:55:17.988Z,2.40
2023-04-15T13:57:42.951Z,2.50
2023-04-15T14:00:09.830Z,2.60
2023-04-15T14:02:36.723Z,2.38
2023-04-15T14:05:04.517Z,2.65
2023-04-15T14:07:31.049Z,2.65
2023-04-15T14:09:57.500Z,3.10
2023-04-15T14:12:23.915Z,2.92
2023-04-15T14:14:50.480Z,2.90
2023-04-15T14:17:16.875Z,3.03
2023-04-15T14:19:43.266Z,3.60
2023-04-15T14:22:09.712Z,3.07
2023-04-15T14:24:36.221Z,3.40
2023-04-15T14:27:03.224Z,3.10
2023-04-15T14:29:29.633Z,3.35
2023-04-15T14:32:11.380Z,3.55
2023-04-15T14:34:38.825Z,4.03
2023-04-15T14:37:05.225Z,3.67
2023-04-15T14:39:31.629Z,3.80
2023-04-15T14:41:58.419Z,3.55
2023-04-15T14:44:24.816Z,3.50
2023-04-15T14:46:51.673Z,3.70
2023-04-15T14:49:18.251Z,4.60
2023-04-15T14:51:44.654Z,3.92
2023-04-15T14:54:11.048Z,4.10
2023-04-15T14:56:37.654Z,3.72
2023-04-15T14:59:04.337Z,4.07
2023-04-15T15:01:30.895Z,4.43
2023-04-15T15:03:57.533Z,4.20
2023-04-15T15:06:23.997Z,4.95
2023-04-15T15:08:50.381Z,4.05
2023-04-15T15:11:17.271Z,4.80
2023-04-15T15:13:43.671Z,5.10
2023-04-15T15:16:11.394Z,4.80
2023-04-15T15:18:39.613Z,4.35
2023-04-15T15:21:06.116Z,5.05
2023-04-15T15:23:32.473Z,4.87
2023-04-15T15:25:59.052Z,5.28
2023-04-15T15:28:25.581Z,4.85
2023-04-15T15:30:51.987Z,4.90
2023-04-15T15:33:18.398Z,4.97
2023-04-15T15:35:44.774Z,5.03
2023-04-15T15:38:12.169Z,4.75
2023-04-15T15:40:38.915Z,4.93
2023-04-15T15:43:05.423Z,4.53
2023-04-15T15:45:31.929Z,5.10
2023-04-15T15:47:59.230Z,6.00
2023-04-15T15:50:25.714Z,5.40
2023-04-15T15:52:52.117Z,4.65
2023-04-15T15:55:18.813Z,4.60
2023-04-15T15:57:45.237Z,5.32
2023-04-15T16:00:12.981Z,4.77
2023-04-15T16:03:05.109Z,5.75
2023-04-15T16:05:26.185Z,5.68
2023-04-15T16:07:52.719Z,5.80
2023-04-15T16:10:19.140Z,5.97
2023-04-15T16:12:45.815Z,6.13
2023-04-15T16:15:12.511Z,6.65
2023-04-15T16:17:38.959Z,6.45
2023-04-15T16:20:06.237Z,6.45
2023-04-15T16:22:34.266Z,6.13
2023-04-15T16:25:01.017Z,6.00
2023-04-15T16:27:28.078Z,6.53
2023-04-15T16:29:54.567Z,7.10
2023-04-15T16:32:21.308Z,7.57
2023-04-15T16:34:47.850Z,7.65
2023-04-15T16:37:14.264Z,8.33
2023-04-15T16:39:40.804Z,8.13
2023-04-15T16:42:07.387Z,8.63
2023-04-15T16:44:33.986Z,8.15
2023-04-15T16:47:02.201Z,8.13
2023-04-15T16:49:29.789Z,8.70
2023-04-15T16:51:56.230Z,8.55
2023-04-15T16:54:22.834Z,8.60
2023-04-15T16:56:49.240Z,9.38
2023-04-15T16:59:15.672Z,8.43
2023-04-15T17:01:42.149Z,9.83
2023-04-15T17:04:08.661Z,9.70
2023-04-15T17:06:35.205Z,9.45
2023-04-15T17:09:01.579Z,9.65
2023-04-15T17:11:28.312Z,9.38
2023-04-15T17:13:54.783Z,9.87
2023-04-15T17:16:21.289Z,9.95
2023-04-15T17:18:47.790Z,10.55
2023-04-15T17:21:15.989Z,10.68
2023-04-15T17:23:42.418Z,10.00
2023-04-15T17:26:08.785Z,10.40
2023-04-15T17:28:35.377Z,11.07
2023-04-15T17:31:01.836Z,11.00
2023-04-15T17:34:00.310Z,11.32
2023-04-15T17:36:14.872Z,10.30
2023-04-15T17:38:41.224Z,10.97
2023-04-15T17:41:07.825Z,10.77
2023-04-15T17:43:34.380Z,10.77
2023-04-15T17:46:00.795Z,10.93
2023-04-15T17:48:27.426Z,11.73
2023-04-15T17:50:53.949Z,11.60
2023-04-15T17:53:20.301Z,11.15
2023-04-15T17:55:46.689Z,10.88
2023-04-15T17:58:13.124Z,10.75
2023-04-15T18:00:39.494Z,10.55
2023-04-15T18:03:06.084Z,11.27
2023-04-15T18:05:32.521Z,11.60
2023-04-15T18:07:58.913Z,11.00
2023-04-15T18:10:25.417Z,9.75
2023-04-15T18:12:51.847Z,11.80
2023-04-15T18:15:18.947Z,11.30
2023-04-15T18:17:45.702Z,11.40
2023-04-15T18:20:12.888Z,11.00
2023-04-15T18:22:39.669Z,11.80
2023-04-15T18:25:06.692Z,11.60
2023-04-15T18:27:33.898Z,10.53
2023-04-15T18:30:00.437Z,10.57
2023-04-15T18:32:31.682Z,11.38
2023-04-15T18:34:58.441Z,11.52
2023-04-15T18:37:26.114Z,11.77
2023-04-15T18:39:52.638Z,12.70
2023-04-15T18:42:20.947Z,11.05
2023-04-15T18:44:47.324Z,12.60
2023-04-15T18:47:13.912Z,16.05
2023-04-15T18:49:41.428Z,12.02
2023-04-15T18:52:09.495Z,11.87
2023-04-15T18:54:37.011Z,12.95
2023-04-15T18:57:06.434Z,13.02
2023-04-15T18:59:33.585Z,12.80
2023-04-15T19:02:01.365Z,12.80
2023-04-15T19:04:29.389Z,12.63
2023-04-15T19:06:56.067Z,12.68
2023-04-15T19:09:22.535Z,12.77
2023-04-15T19:11:48.943Z,14.50
2023-04-15T19:14:15.324Z,19.05
2023-04-15T19:16:41.792Z,14.53
2023-04-15T19:19:08.192Z,13.45
2023-04-15T19:21:34.829Z,14.25
2023-04-15T19:24:01.328Z,14.88
2023-04-15T19:26:27.955Z,14.60
2023-04-15T19:28:54.863Z,16.17
2023-04-15T19:31:21.321Z,25.25
2023-04-15T19:33:47.715Z,16.20
2023-04-15T19:36:14.228Z,16.17
2023-04-15T19:38:40.741Z,25.33
2023-04-15T19:41:07.156Z,101.53
2023-04-15T19:43:33.538Z,18.98
2023-04-15T19:46:00.122Z,17.98
2023-04-15T19:48:26.586Z,17.13
2023-04-15T19:50:53.085Z,17.85
2023-04-15T19:53:19.431Z,17.60
2023-04-15T19:55:46.997Z,50.08
2023-04-15T19:58:13.403Z,18.55
2023-04-15T20:00:39.796Z,21.55
2023-04-15T20:03:06.353Z,17.77
2023-04-15T20:05:32.953Z,17.40
2023-04-15T20:08:00.909Z,16.90
2023-04-15T20:10:27.506Z,16.90
2023-04-15T20:12:53.916Z,17.80
2023-04-15T20:15:21.467Z,17.38
2023-04-15T20:17:47.950Z,17.57
2023-04-15T20:20:14.364Z,18.25
2023-04-15T20:22:41.303Z,18.92
2023-04-15T20:25:07.986Z,18.58
2023-04-15T20:27:34.365Z,18.67
2023-04-15T20:30:00.800Z,19.23
2023-04-15T20:32:28.322Z,19.42
2023-04-15T20:34:54.893Z,19.48
2023-04-15T20:37:21.352Z,19.23
2023-04-15T20:39:47.828Z,18.27
2023-04-15T20:42:14.248Z,20.23
2023-04-15T20:44:40.645Z,19.63
2023-04-15T20:47:07.329Z,20.83
2023-04-15T20:49:37.126Z,20.52
2023-04-15T20:52:05.128Z,21.05
2023-04-15T20:54:31.530Z,20.07
2023-04-15T20:56:58.119Z,21.20
2023-04-15T20:59:25.105Z,21.08
2023-04-15T21:01:51.799Z,20.98
2023-04-15T21:04:18.295Z,21.27
2023-04-15T21:06:44.863Z,22.23
2023-04-15T21:09:11.272Z,22.05
2023-04-15T21:14:08.357Z,22.13
2023-04-15T21:16:34.969Z,23.60
2023-04-15T21:19:01.333Z,20.73
2023-04-15T21:21:28.075Z,21.70
2023-04-15T21:23:54.470Z,22.85
2023-04-15T21:26:20.838Z,21.52
2023-04-15T21:28:47.203Z,23.23
2023-04-15T21:31:14.010Z,22.30
2023-04-15T21:33:40.386Z,23.25
2023-04-15T21:36:07.312Z,21.80
2023-04-15T21:38:34.104Z,23.02
2023-04-15T21:41:01.165Z,23.50
2023-04-15T21:43:27.697Z,23.00
2023-04-15T21:46:22.816Z,21.63
2023-04-15T21:48:40.472Z,22.38
2023-04-15T21:51:08.231Z,21.73
2023-04-15T21:53:34.857Z,22.33
2023-04-15T21:56:01.649Z,22.90
2023-04-15T21:58:28.050Z,22.92
2023-04-15T22:00:59.100Z,23.83
2023-04-15T22:03:28.513Z,22.52
2023-04-15T22:05:55.144Z,23.23
2023-04-15T22:08:21.511Z,23.23
2023-04-15T22:10:47.914Z,22.90
2023-04-15T22:13:14.285Z,22.42
2023-04-15T22:15:41.846Z,23.00
2023-04-15T22:18:08.328Z,22.73
2023-04-15T22:20:34.751Z,24.20
2023-04-15T22:23:03.786Z,23.38
2023-04-15T22:25:30.784Z,23.25
2023-04-15T22:27:57.123Z,22.10
2023-04-15T22:30:23.638Z,22.30
2023-04-15T22:32:50.111Z,24.07
2023-04-15T22:35:16.667Z,23.40
2023-04-15T22:37:43.062Z,23.75
2023-04-15T22:40:09.944Z,24.35
2023-04-15T22:42:36.386Z,23.20
2023-04-15T22:45:02.834Z,22.60
2023-04-15T22:47:29.319Z,24.75
2023-04-15T22:49:55.959Z,24.58
2023-04-15T22:52:29.847Z,24.45
2023-04-15T22:54:57.545Z,23.05
2023-04-15T22:57:23.992Z,24.90
2023-04-15T22:59:50.396Z,24.15
2023-04-15T23:02:17.072Z,24.83
2023-04-15T23:04:43.638Z,24.88
2023-04-15T23:07:10.056Z,24.33
2023-04-15T23:09:36.678Z,24.60
2023-04-15T23:12:03.558Z,24.13
2023-04-15T23:14:30.763Z,24.90
2023-04-15T23:16:58.150Z,24.40
2023-04-15T23:19:24.858Z,24.20
2023-04-15T23:21:51.259Z,23.30
2023-04-15T23:24:17.670Z,24.17
2023-04-15T23:26:44.101Z,23.25
2023-04-15T23:29:10.752Z,25.27
2023-04-15T23:31:37.337Z,24.25
2023-04-15T23:34:04.116Z,24.27
2023-04-15T23:36:31.733Z,24.92
2023-04-15T23:38:58.137Z,24.98
2023-04-15T23:41:24.491Z,25.35
2023-04-15T23:43:51.628Z,25.00
2023-04-15T23:46:18.043Z,24.60
2023-04-15T23:48:44.454Z,24.10
2023-04-15T23:51:11.003Z,24.10
2023-04-15T23:53:37.375Z,23.58
2023-04-15T23:56:04.032Z,24.90
2023-04-15T23:58:31.018Z,25.33
